La Ceiba, Honduras

8:17 AM CST on September 05, 2015 (GMT -0600)
Goloson International | | Change Station
CLOSE
Current Station
Airport
Location: La Ceiba,
Elevation: 46 ft
Nearby Weather Stations

Elev 46 ft 15.75 °N, 86.84 °W | Updated 17 minutes ago

Mostly Cloudy
Mostly Cloudy
79 °F
Feels Like 79 °F
N
0
Wind Variable Wind from North

Today
High -- | Low -- °F
--% Chance of Precip.
Yesterday
High -- | Low -- °F
Precip. -- in
5:35 AM 5:57 PM
Waning Gibbous, 48% visible
Pressure 29.95 in
Visibility 6.2 miles
Clouds Few 2600 ft
Mostly Cloudy 22000 ft
Dew Point 73 °F
Humidity 83%
Rainfall 0.00 in
Snow Depth Not available.
UV 3 out of 12
Pollen Not available.
Air Quality Not available.
Flu Activity Not available.
METAR MHLC 051400Z 00000KT 9999 FEW026 BKN220 26/23 Q1014 A2995 NOSIG
Pressure 29.95 in
Visibility 6.2 miles
Clouds Few 2600 ft
Mostly Cloudy 22000 ft
Dew Point 73 °F
Humidity 83%
Rainfall 0.00 in
Snow Depth Not available.
UV 3 out of 12
Pollen Not available.
Air Quality Not available.
Flu Activity Not available.
METAR MHLC 051400Z 00000KT 9999 FEW026 BKN220 26/23 Q1014 A2995 NOSIG

10-Day Weather Forecast

×

Almanac

Astronomy

Sep. 05, 2015 Rise Set
Actual Time
Civil Twilight
Nautical Twilight
Astronomical Twilight
Moon
Length of Visible Light
Length of Day
Tomorrow will be .
, % of the Moon is Illuminated

Today's Extremes

Country Highs Country Lows

Community

WunderPhotos

Upload Photos

1,852,472 photos uploaded!

WunderBlogs® & News

Nearby

Air Quality

  Air Quality AQ Index Pollutant
Not available.

Snow Depth

Station Depth Elevation

Earthquake Activity

City Distance Mag. Time & Date
Minimum magnitude displayed is 2.5.

Coastal Water Temperatures

Place Temperature

Stations

Nearby Weather Stations

Station Location Temp. Windchill Dew Point Humidity Wind Precip. Elev Updated Type